Time;durP1;ratioP1;P1;durP2;ratioP2;P2;SDS_P1;SDS_P2;PMS_P1;PMS_P2;Temp;Humidity;BMP_temperature;BMP_pressure;BME280_temperature;BME280_humidity;BME280_pressure;Samples;Min_cycle;Max_cycle;Signal;HPM_P1;HPM_P2
2021/09/01 00:00:57;;;;;;;17.33;13.87;;;11.40;99.90;;;;;;5008512;28;20549;-66
2021/09/01 00:03:23;;;;;;;16.13;13.40;;;11.40;99.90;;;;;;5008344;28;20561;-66
2021/09/01 00:05:52;;;;;;;18.40;13.80;;;11.40;99.90;;;;;;5007935;28;20499;-66
2021/09/01 00:08:19;;;;;;;16.00;14.30;;;11.40;99.90;;;;;;5008485;28;20544;-66
2021/09/01 00:10:46;;;;;;;19.63;15.20;;;11.40;99.90;;;;;;5008246;28;20485;-66
2021/09/01 00:13:12;;;;;;;21.40;16.90;;;11.50;99.90;;;;;;5019960;28;20500;-66
2021/09/01 00:15:39;;;;;;;21.20;16.07;;;11.40;99.90;;;;;;5008058;28;20472;-66
2021/09/01 00:18:08;;;;;;;18.70;15.40;;;11.40;99.90;;;;;;5002513;28;20549;-66
2021/09/01 00:20:34;;;;;;;20.90;15.63;;;11.30;99.90;;;;;;5001728;28;20464;-66
2021/09/01 00:23:01;;;;;;;19.70;15.87;;;11.30;99.90;;;;;;5001488;28;20473;-66
2021/09/01 00:25:28;;;;;;;18.33;15.53;;;11.30;99.90;;;;;;5002345;28;20529;-66
2021/09/01 00:27:55;;;;;;;23.33;17.23;;;11.30;99.90;;;;;;5007587;28;20525;-66
2021/09/01 00:30:22;;;;;;;19.10;15.67;;;11.30;99.90;;;;;;5002034;28;20828;-66
2021/09/01 00:32:49;;;;;;;17.83;15.90;;;11.30;99.90;;;;;;5007598;28;21234;-66
2021/09/01 00:35:18;;;;;;;18.87;15.67;;;11.20;99.90;;;;;;5008605;28;20556;-66
2021/09/01 00:37:45;;;;;;;20.23;16.40;;;11.30;99.90;;;;;;5001591;28;20497;-66
2021/09/01 00:40:12;;;;;;;19.27;16.07;;;11.30;99.90;;;;;;5008211;28;20481;-66
2021/09/01 00:42:39;;;;;;;19.87;16.23;;;11.30;99.90;;;;;;5000999;28;20530;-67
2021/09/01 00:45:08;;;;;;;18.37;15.53;;;11.20;99.90;;;;;;5019588;28;20450;-66
2021/09/01 00:47:37;;;;;;;17.73;14.80;;;11.20;99.90;;;;;;4990972;28;20451;-66
2021/09/01 00:50:05;;;;;;;19.10;16.57;;;11.20;99.90;;;;;;4991094;28;20454;-65
2021/09/01 00:52:34;;;;;;;23.80;16.13;;;11.20;99.90;;;;;;4991203;28;20560;-66
2021/09/01 00:55:03;;;;;;;18.43;15.63;;;11.20;99.90;;;;;;4991508;28;20483;-66
2021/09/01 00:57:31;;;;;;;20.03;16.00;;;11.20;99.90;;;;;;4991257;28;20682;-66
2021/09/01 00:59:58;;;;;;;20.23;15.33;;;11.10;99.90;;;;;;4991427;28;20478;-66
2021/09/01 01:02:25;;;;;;;20.53;16.47;;;11.10;99.90;;;;;;4991159;28;20572;-66
2021/09/01 01:04:52;;;;;;;19.87;16.13;;;11.10;99.90;;;;;;4991560;28;20939;-66
2021/09/01 01:07:21;;;;;;;23.90;17.53;;;11.20;99.90;;;;;;4991288;28;20525;-66
2021/09/01 01:09:49;;;;;;;21.73;16.07;;;11.20;99.90;;;;;;4991543;28;20478;-65
2021/09/01 01:12:20;;;;;;;25.30;18.50;;;11.20;99.90;;;;;;4990939;28;20829;-66
2021/09/01 01:14:49;;;;;;;19.10;15.70;;;11.10;99.90;;;;;;4990730;28;20842;-70
2021/09/01 01:17:18;;;;;;;18.77;15.97;;;11.10;99.90;;;;;;4990564;28;20489;-66
2021/09/01 01:19:46;;;;;;;20.00;16.13;;;11.20;99.90;;;;;;4990872;28;20458;-66
2021/09/01 01:22:14;;;;;;;17.97;14.53;;;11.10;99.90;;;;;;4989858;28;20955;-66
2021/09/01 01:24:53;;;;;;;20.50;16.80;;;11.10;99.90;;;;;;4990815;28;20474;-65
2021/09/01 01:27:29;;;;;;;21.10;16.17;;;11.00;99.90;;;;;;4990902;28;20443;-65
2021/09/01 01:29:57;;;;;;;17.03;14.60;;;10.90;99.90;;;;;;4990746;28;20446;-65
2021/09/01 01:32:24;;;;;;;20.60;15.50;;;10.90;99.90;;;;;;4990327;28;20563;-65
2021/09/01 01:34:51;;;;;;;16.23;14.10;;;10.90;99.90;;;;;;4990815;28;20462;-65
2021/09/01 01:37:18;;;;;;;21.57;17.13;;;10.90;99.90;;;;;;4990523;28;21020;-66
2021/09/01 01:39:45;;;;;;;21.00;16.30;;;10.90;99.90;;;;;;4991852;28;20549;-66
2021/09/01 01:42:12;;;;;;;18.53;14.20;;;10.90;99.90;;;;;;4993806;28;20455;-66
2021/09/01 01:44:40;;;;;;;19.13;15.03;;;11.00;99.90;;;;;;4994467;28;20471;-66
2021/09/01 01:47:07;;;;;;;18.43;13.93;;;11.00;99.90;;;;;;4994482;28;20445;-65
2021/09/01 01:49:35;;;;;;;17.57;14.20;;;11.00;99.90;;;;;;4994191;28;20450;-66
2021/09/01 01:52:02;;;;;;;19.47;13.97;;;10.90;99.90;;;;;;4993765;28;20543;-66
2021/09/01 01:54:29;;;;;;;19.43;15.20;;;10.90;99.90;;;;;;4994269;28;21000;-66
2021/09/01 01:56:56;;;;;;;21.57;15.57;;;10.90;99.90;;;;;;4993987;28;20580;-66
2021/09/01 01:59:23;;;;;;;20.87;15.77;;;10.80;99.90;;;;;;4994193;28;20976;-66
2021/09/01 02:01:51;;;;;;;21.00;15.50;;;10.80;99.90;;;;;;4993899;28;20533;-66
2021/09/01 02:04:18;;;;;;;21.33;15.20;;;10.70;99.90;;;;;;4993999;28;20886;-66
2021/09/01 02:06:45;;;;;;;17.80;14.70;;;10.70;99.90;;;;;;4994086;28;20526;-67
2021/09/01 02:09:12;;;;;;;18.10;15.13;;;10.80;99.90;;;;;;4994052;28;20554;-66
2021/09/01 02:11:38;;;;;;;16.23;13.37;;;10.70;99.90;;;;;;4993762;28;20533;-66
2021/09/01 02:14:05;;;;;;;19.07;14.60;;;10.70;99.90;;;;;;4994023;28;20582;-66
2021/09/01 02:16:32;;;;;;;23.30;17.60;;;10.60;99.90;;;;;;4993714;28;20525;-66
2021/09/01 02:19:00;;;;;;;19.00;16.20;;;10.60;99.90;;;;;;4993950;28;20478;-66
2021/09/01 02:21:27;;;;;;;19.60;16.17;;;10.60;99.90;;;;;;4993392;28;20893;-66
2021/09/01 02:23:54;;;;;;;19.50;15.63;;;10.60;99.90;;;;;;4993261;28;20475;-66
2021/09/01 02:26:21;;;;;;;18.50;13.70;;;10.60;99.90;;;;;;4993669;28;20451;-66
2021/09/01 02:28:48;;;;;;;18.07;14.30;;;10.60;99.90;;;;;;4993516;28;20966;-66
2021/09/01 02:31:15;;;;;;;17.80;14.07;;;10.60;99.90;;;;;;4993729;28;20465;-66
2021/09/01 02:33:42;;;;;;;19.80;14.53;;;10.70;99.90;;;;;;4993153;28;21317;-66
2021/09/01 02:36:10;;;;;;;19.33;13.87;;;10.60;99.90;;;;;;4993460;28;20549;-66
2021/09/01 02:38:39;;;;;;;17.80;15.10;;;10.60;99.90;;;;;;4993310;28;20862;-66
2021/09/01 02:41:06;;;;;;;19.57;14.47;;;10.60;99.90;;;;;;4993450;28;20446;-66
2021/09/01 02:43:33;;;;;;;18.37;13.43;;;10.60;99.90;;;;;;4992870;28;20502;-66
2021/09/01 02:46:00;;;;;;;17.30;13.37;;;10.50;99.90;;;;;;4993700;28;20942;-69
2021/09/01 02:48:27;;;;;;;17.10;13.93;;;10.50;99.90;;;;;;4993607;28;20442;-66
2021/09/01 02:50:53;;;;;;;20.17;13.77;;;10.50;99.90;;;;;;4992483;28;20447;-66
2021/09/01 02:53:22;;;;;;;17.43;14.33;;;10.40;99.90;;;;;;4993062;28;20467;-66
2021/09/01 02:55:49;;;;;;;19.50;13.10;;;10.40;99.90;;;;;;4993691;28;20450;-69
2021/09/01 02:58:16;;;;;;;22.40;15.83;;;10.40;99.90;;;;;;4993293;28;20851;-66
2021/09/01 03:00:43;;;;;;;21.40;14.27;;;10.30;99.90;;;;;;4993024;28;21050;-66
2021/09/01 03:03:10;;;;;;;16.37;14.07;;;10.30;99.90;;;;;;4992520;28;20471;-66
2021/09/01 03:05:37;;;;;;;18.13;14.80;;;10.40;99.90;;;;;;4992772;28;20486;-69
2021/09/01 03:08:05;;;;;;;20.93;13.33;;;10.30;99.90;;;;;;4993245;28;20549;-66
2021/09/01 03:10:33;;;;;;;16.50;14.37;;;10.20;99.90;;;;;;4993258;28;20823;-66
2021/09/01 03:13:00;;;;;;;18.27;13.87;;;10.20;99.90;;;;;;4992395;28;20542;-66
2021/09/01 03:15:28;;;;;;;22.33;14.60;;;10.20;99.90;;;;;;4992415;28;20468;-66
2021/09/01 03:17:55;;;;;;;20.13;14.77;;;10.20;99.90;;;;;;4992500;28;20564;-66
2021/09/01 03:20:22;;;;;;;24.63;15.57;;;10.30;99.90;;;;;;4992897;28;20453;-65
2021/09/01 03:22:48;;;;;;;33.00;16.70;;;10.50;99.90;;;;;;4992204;28;20535;-66
2021/09/01 03:25:15;;;;;;;24.37;18.03;;;10.70;99.90;;;;;;4992433;28;20454;-66
2021/09/01 03:27:43;;;;;;;34.20;17.07;;;10.80;99.90;;;;;;4992184;28;20443;-65
2021/09/01 03:30:11;;;;;;;28.50;18.00;;;10.90;99.90;;;;;;4992086;28;20550;-66
2021/09/01 03:32:38;;;;;;;24.10;16.57;;;11.10;99.90;;;;;;4991720;28;20477;-66
2021/09/01 03:35:06;;;;;;;27.03;16.10;;;11.10;99.90;;;;;;4992561;28;20549;-66
2021/09/01 03:37:33;;;;;;;17.13;14.10;;;11.10;99.90;;;;;;4992226;28;20482;-66
2021/09/01 03:40:00;;;;;;;18.60;13.40;;;11.10;99.90;;;;;;4992479;28;20446;-67
2021/09/01 03:42:27;;;;;;;14.90;12.27;;;11.10;99.90;;;;;;4991797;28;20827;-66
2021/09/01 03:44:56;;;;;;;15.50;12.13;;;11.00;99.90;;;;;;4992177;28;20461;-66
2021/09/01 03:47:22;;;;;;;14.07;11.90;;;11.00;99.90;;;;;;4992293;28;20526;-66
2021/09/01 03:49:49;;;;;;;19.47;14.27;;;11.10;99.90;;;;;;4991887;28;20464;-66
2021/09/01 03:52:16;;;;;;;16.67;13.67;;;11.20;99.90;;;;;;4991933;28;20533;-66
2021/09/01 03:54:43;;;;;;;14.60;11.97;;;11.30;99.90;;;;;;4991879;28;20442;-66
2021/09/01 03:57:10;;;;;;;15.93;12.10;;;11.40;99.90;;;;;;4991817;28;20487;-66
2021/09/01 03:59:36;;;;;;;18.43;12.60;;;11.30;99.90;;;;;;4991665;28;20843;-66
2021/09/01 04:02:05;;;;;;;12.60;10.33;;;11.20;99.90;;;;;;4991082;28;20446;-66
2021/09/01 04:04:32;;;;;;;11.77;10.57;;;11.10;99.90;;;;;;4991814;28;20482;-66
2021/09/01 04:06:58;;;;;;;12.00;10.67;;;11.00;99.90;;;;;;4992053;28;20457;-66
2021/09/01 04:09:25;;;;;;;13.13;9.90;;;10.80;99.90;;;;;;4991807;28;20457;-65
2021/09/01 04:11:52;;;;;;;13.47;10.03;;;10.70;99.90;;;;;;4991241;28;20947;-65
2021/09/01 04:14:19;;;;;;;11.80;9.60;;;10.70;99.90;;;;;;4991393;28;20478;-65
2021/09/01 04:16:46;;;;;;;12.23;10.67;;;10.70;99.90;;;;;;4991517;28;20549;-65
2021/09/01 04:19:14;;;;;;;16.27;11.20;;;10.60;99.90;;;;;;4991401;28;20493;-65
2021/09/01 04:21:41;;;;;;;14.70;10.40;;;10.70;99.90;;;;;;4991032;28;20456;-70
2021/09/01 04:24:08;;;;;;;16.23;11.50;;;10.70;99.90;;;;;;4991294;28;20998;-65
2021/09/01 04:26:35;;;;;;;20.40;11.90;;;10.60;99.90;;;;;;4991486;28;20482;-65
2021/09/01 04:29:01;;;;;;;20.73;11.67;;;10.70;99.90;;;;;;4991491;28;20453;-65
2021/09/01 04:31:28;;;;;;;30.60;12.37;;;10.80;99.90;;;;;;4991199;28;20455;-65
2021/09/01 04:33:55;;;;;;;18.10;11.73;;;10.80;99.90;;;;;;4991306;28;20549;-66
2021/09/01 04:36:23;;;;;;;17.13;12.50;;;10.90;99.90;;;;;;4991296;28;20539;-65
2021/09/01 04:38:50;;;;;;;18.67;12.50;;;10.90;99.90;;;;;;4991270;28;20495;-65
2021/09/01 04:41:17;;;;;;;16.40;12.73;;;10.90;99.90;;;;;;4990957;28;20825;-65
2021/09/01 04:43:44;;;;;;;21.40;12.57;;;10.80;99.90;;;;;;4990875;28;20566;-65
2021/09/01 04:46:11;;;;;;;19.10;12.77;;;10.80;99.90;;;;;;4991170;28;20443;-65
2021/09/01 04:48:37;;;;;;;17.93;13.20;;;10.90;99.90;;;;;;4991031;28;20943;-65
2021/09/01 04:51:04;;;;;;;24.17;14.37;;;11.10;99.90;;;;;;4991084;28;20457;-65
2021/09/01 04:53:32;;;;;;;18.13;12.07;;;11.20;99.90;;;;;;4990857;28;20484;-65
2021/09/01 04:55:59;;;;;;;21.27;13.83;;;11.30;99.90;;;;;;4990866;28;21026;-65
2021/09/01 04:58:26;;;;;;;21.77;13.43;;;11.20;99.90;;;;;;4990892;28;20486;-66
2021/09/01 05:00:53;;;;;;;19.83;13.00;;;11.20;99.90;;;;;;4990668;28;21178;-66
2021/09/01 05:03:20;;;;;;;19.70;13.90;;;11.20;99.90;;;;;;4990409;28;20474;-67
2021/09/01 05:05:46;;;;;;;18.00;13.07;;;11.20;99.90;;;;;;4991132;28;20457;-66
2021/09/01 05:08:13;;;;;;;40.57;13.83;;;11.20;99.90;;;;;;4991205;28;20447;-65
2021/09/01 05:10:42;;;;;;;20.30;13.40;;;11.20;99.90;;;;;;4990994;28;20456;-65
2021/09/01 05:13:09;;;;;;;26.70;13.33;;;11.30;99.90;;;;;;4990549;28;20554;-66
2021/09/01 05:15:36;;;;;;;21.97;14.30;;;11.40;99.90;;;;;;4993376;28;20461;-66
2021/09/01 05:18:02;;;;;;;25.03;14.43;;;11.50;99.90;;;;;;4994839;28;20486;-66
2021/09/01 05:20:29;;;;;;;24.30;13.97;;;11.60;99.90;;;;;;4994518;28;20469;-66
2021/09/01 05:23:00;;;;;;;21.93;15.00;;;11.60;99.90;;;;;;4994278;28;20849;-66
2021/09/01 05:25:30;;;;;;;25.37;15.97;;;11.70;99.90;;;;;;4995026;28;20478;-66
2021/09/01 05:27:59;;;;;;;27.10;16.60;;;11.70;99.90;;;;;;4994719;28;20447;-65
2021/09/01 05:30:27;;;;;;;25.10;15.27;;;11.80;99.90;;;;;;4994809;28;20558;-65
2021/09/01 05:32:57;;;;;;;29.63;14.40;;;11.90;99.90;;;;;;4994191;28;20474;-66
2021/09/01 05:35:24;;;;;;;25.80;14.93;;;12.00;99.90;;;;;;4994351;28;20457;-66
2021/09/01 05:37:51;;;;;;;18.57;13.90;;;12.10;99.90;;;;;;4994638;28;20490;-67
2021/09/01 05:40:18;;;;;;;29.97;16.50;;;12.20;99.90;;;;;;4994353;28;20541;-66
2021/09/01 05:42:45;;;;;;;32.60;15.70;;;12.20;99.90;;;;;;4993484;28;20481;-66
2021/09/01 05:45:13;;;;;;;32.30;15.30;;;12.30;99.90;;;;;;4993849;28;20557;-66
2021/09/01 05:47:40;;;;;;;33.03;14.83;;;12.30;99.90;;;;;;4993756;28;20457;-66
2021/09/01 05:50:09;;;;;;;27.80;15.07;;;12.40;99.90;;;;;;4993714;28;20885;-66
2021/09/01 05:52:36;;;;;;;28.47;14.73;;;12.30;99.90;;;;;;4993358;28;20474;-66
2021/09/01 05:55:09;;;;;;;32.87;16.10;;;12.30;99.90;;;;;;4993720;28;20454;-66
2021/09/01 05:57:38;;;;;;;34.70;16.47;;;12.50;99.90;;;;;;4993652;28;20473;-66
2021/09/01 06:00:09;;;;;;;41.67;16.80;;;12.50;99.90;;;;;;4993610;28;20465;-66
2021/09/01 06:02:43;;;;;;;36.20;17.20;;;12.60;99.90;;;;;;4992827;28;20459;-66
2021/09/01 06:05:11;;;;;;;24.80;15.30;;;12.70;99.90;;;;;;4993440;28;20994;-66
2021/09/01 06:07:41;;;;;;;45.63;17.30;;;12.80;99.90;;;;;;4993411;28;20593;-66
2021/09/01 06:10:10;;;;;;;92.47;18.10;;;12.80;99.90;;;;;;4993300;28;20454;-66
2021/09/01 06:12:42;;;;;;;63.80;17.77;;;12.80;99.90;;;;;;4993103;28;20551;-66
2021/09/01 06:15:10;;;;;;;33.70;16.03;;;12.90;99.90;;;;;;4993140;28;20541;-66
2021/09/01 06:17:36;;;;;;;84.33;20.43;;;12.90;99.90;;;;;;4993154;28;20454;-66
2021/09/01 06:20:06;;;;;;;49.07;17.90;;;13.00;99.90;;;;;;4993211;28;20454;-66
2021/09/01 06:22:34;;;;;;;21.57;16.30;;;13.00;99.90;;;;;;4992691;28;20467;-66
2021/09/01 06:25:02;;;;;;;41.13;18.50;;;13.20;99.90;;;;;;4992940;28;20451;-66
2021/09/01 06:27:29;;;;;;;28.23;16.60;;;13.40;99.90;;;;;;4992759;28;20565;-66
2021/09/01 06:29:56;;;;;;;28.93;17.33;;;13.50;99.90;;;;;;4993066;28;20533;-66
2021/09/01 06:32:23;;;;;;;45.10;18.43;;;13.60;99.90;;;;;;4992580;28;20471;-66
2021/09/01 06:34:50;;;;;;;31.33;16.97;;;13.70;99.90;;;;;;4992814;28;20978;-66
2021/09/01 06:37:18;;;;;;;21.33;16.83;;;13.70;99.90;;;;;;4992795;28;20451;-66
2021/09/01 06:39:45;;;;;;;36.00;18.57;;;13.80;99.90;;;;;;4992702;28;20512;-66
2021/09/01 06:42:12;;;;;;;35.00;17.30;;;13.90;99.90;;;;;;4992446;28;20447;-66
2021/09/01 06:44:39;;;;;;;40.80;17.63;;;14.00;99.90;;;;;;4992571;28;20454;-66
2021/09/01 06:47:06;;;;;;;27.00;17.40;;;14.10;99.90;;;;;;4992728;28;20566;-66
2021/09/01 06:49:33;;;;;;;32.97;19.83;;;14.00;99.90;;;;;;4992595;28;21048;-66
2021/09/01 06:52:00;;;;;;;24.37;19.03;;;14.10;99.90;;;;;;4992329;28;20501;-66
2021/09/01 06:54:28;;;;;;;25.93;18.33;;;14.20;99.90;;;;;;4992490;28;20540;-66
2021/09/01 06:56:55;;;;;;;76.03;22.47;;;14.40;99.90;;;;;;4992694;28;20939;-66
2021/09/01 06:59:22;;;;;;;36.73;20.37;;;14.50;99.90;;;;;;4992435;28;20577;-66
2021/09/01 07:01:49;;;;;;;26.23;20.10;;;14.50;99.90;;;;;;4992253;28;20573;-66
2021/09/01 07:04:16;;;;;;;28.70;19.83;;;14.50;99.90;;;;;;4992289;28;20475;-66
2021/09/01 07:06:43;;;;;;;31.70;19.77;;;14.60;99.90;;;;;;4992254;28;20991;-66
2021/09/01 07:09:09;;;;;;;24.47;17.57;;;14.70;99.90;;;;;;4992154;28;20469;-66
2021/09/01 07:11:38;;;;;;;27.90;21.13;;;14.80;99.90;;;;;;4991966;28;20902;-66
2021/09/01 07:14:06;;;;;;;26.07;20.80;;;14.90;99.90;;;;;;4992202;28;20483;-66
2021/09/01 07:16:33;;;;;;;41.73;20.03;;;14.90;99.90;;;;;;4992339;28;21132;-66
2021/09/01 07:19:00;;;;;;;24.70;19.37;;;15.10;99.90;;;;;;4992198;28;20516;-66
2021/09/01 07:21:27;;;;;;;27.70;18.70;;;15.10;99.90;;;;;;4991868;28;20460;-66
2021/09/01 07:23:54;;;;;;;28.10;20.73;;;15.20;99.90;;;;;;4991832;28;20501;-66
2021/09/01 07:26:21;;;;;;;27.80;21.33;;;15.30;99.90;;;;;;4992455;28;20458;-66
2021/09/01 07:28:49;;;;;;;25.23;17.97;;;15.50;99.90;;;;;;4992078;28;20447;-66
2021/09/01 07:31:16;;;;;;;26.90;19.03;;;15.40;99.90;;;;;;4991850;28;20450;-66
2021/09/01 07:33:43;;;;;;;32.00;20.57;;;15.50;99.90;;;;;;4991711;28;20562;-66
2021/09/01 07:36:10;;;;;;;24.73;20.27;;;15.50;99.90;;;;;;4991654;28;20483;-66
2021/09/01 07:38:37;;;;;;;23.93;19.57;;;15.60;99.90;;;;;;4991191;28;20505;-67
2021/09/01 07:41:03;;;;;;;24.50;19.30;;;15.60;99.90;;;;;;4991865;28;20888;-64
2021/09/01 07:43:30;;;;;;;28.43;19.47;;;15.70;99.90;;;;;;4991371;28;20477;-62
2021/09/01 07:45:58;;;;;;;24.80;19.10;;;15.80;99.90;;;;;;4991655;28;20947;-63
2021/09/01 07:48:26;;;;;;;23.37;18.10;;;15.80;99.90;;;;;;4991539;28;20956;-63
2021/09/01 07:50:52;;;;;;;23.50;18.87;;;15.80;99.90;;;;;;4991502;28;20457;-65
2021/09/01 07:53:19;;;;;;;22.70;18.80;;;15.80;99.90;;;;;;4991333;28;20832;-64
2021/09/01 07:55:46;;;;;;;21.87;18.47;;;16.00;99.90;;;;;;4991905;28;20454;-65
2021/09/01 07:58:13;;;;;;;22.47;18.73;;;16.20;99.90;;;;;;4992113;28;20459;-65
2021/09/01 08:00:41;;;;;;;20.17;17.80;;;16.50;99.90;;;;;;4992004;28;20455;-66
2021/09/01 08:03:09;;;;;;;21.10;18.30;;;16.70;99.90;;;;;;4991404;28;20674;-65
2021/09/01 08:05:36;;;;;;;20.50;17.33;;;16.80;99.90;;;;;;4994727;28;20532;-65
2021/09/01 08:08:03;;;;;;;19.17;16.83;;;16.80;99.90;;;;;;5001868;28;20548;-65
2021/09/01 08:10:31;;;;;;;20.17;16.87;;;17.10;99.90;;;;;;5001701;28;20457;-64
2021/09/01 08:12:57;;;;;;;20.20;17.60;;;17.30;99.90;;;;;;4996117;28;20462;-68
2021/09/01 08:15:25;;;;;;;19.63;17.33;;;17.40;99.90;;;;;;5006482;28;20475;-66
2021/09/01 08:17:51;;;;;;;18.30;16.40;;;17.50;99.90;;;;;;5010846;28;20899;-67
2021/09/01 08:20:20;;;;;;;18.03;16.13;;;17.80;99.90;;;;;;5010504;28;21015;-65
2021/09/01 08:22:46;;;;;;;18.40;16.47;;;17.90;99.90;;;;;;5010130;28;20466;-65
2021/09/01 08:25:13;;;;;;;18.17;16.13;;;18.00;99.90;;;;;;5010527;28;20571;-65
2021/09/01 08:27:40;;;;;;;16.80;15.20;;;18.30;99.90;;;;;;5010250;28;20473;-65
2021/09/01 08:30:08;;;;;;;15.43;13.83;;;18.40;99.90;;;;;;5010294;28;20937;-65
2021/09/01 08:32:35;;;;;;;16.40;14.60;;;17.90;99.90;;;;;;5009774;28;21014;-65
2021/09/01 08:35:02;;;;;;;19.17;15.03;;;17.80;99.90;;;;;;5010586;28;20451;-65
2021/09/01 08:37:30;;;;;;;17.13;15.33;;;17.70;99.90;;;;;;5010231;28;20493;-65
2021/09/01 08:40:00;;;;;;;15.47;13.97;;;17.90;99.90;;;;;;5010155;28;21009;-65
2021/09/01 08:42:27;;;;;;;15.73;14.17;;;17.90;99.90;;;;;;5009913;28;20651;-65
2021/09/01 08:44:54;;;;;;;17.57;15.70;;;18.20;99.90;;;;;;5010234;28;20540;-65
2021/09/01 08:47:22;;;;;;;17.77;15.87;;;18.60;99.90;;;;;;5010135;28;20454;-65
2021/09/01 08:49:49;;;;;;;16.00;14.30;;;18.90;99.90;;;;;;5010078;28;20448;-65
2021/09/01 08:52:16;;;;;;;15.13;13.53;;;19.10;99.90;;;;;;5009848;28;20471;-65
2021/09/01 08:54:44;;;;;;;16.07;14.47;;;19.40;99.90;;;;;;5009964;28;20496;-65
2021/09/01 08:57:13;;;;;;;15.30;13.80;;;19.50;99.90;;;;;;5009523;28;20541;-65
2021/09/01 08:59:40;;;;;;;15.80;14.10;;;19.00;99.90;;;;;;5002312;28;20489;-64
2021/09/01 09:02:07;;;;;;;14.40;12.90;;;19.00;99.90;;;;;;5023243;28;20453;-64
2021/09/01 09:04:34;;;;;;;15.13;13.63;;;18.80;99.90;;;;;;5022730;28;20522;-65
2021/09/01 09:07:03;;;;;;;16.23;14.53;;;18.90;99.90;;;;;;5028727;28;20449;-66
2021/09/01 09:09:31;;;;;;;17.30;15.60;;;18.80;99.90;;;;;;5028181;28;20448;-66
2021/09/01 09:12:01;;;;;;;17.03;15.27;;;18.50;99.90;;;;;;5027662;28;20535;-66
2021/09/01 09:14:30;;;;;;;18.77;16.80;;;18.10;99.90;;;;;;5027852;28;20467;-66
2021/09/01 09:17:06;;;;;;;17.60;15.90;;;18.00;99.90;;;;;;5027595;28;20459;-66
2021/09/01 09:19:53;;;;;;;19.10;14.80;;;18.00;99.90;;;;;;5025654;28;20508;-64
2021/09/01 09:22:25;;;;;;;20.27;15.70;;;18.30;99.90;;;;;;5007536;28;20470;-64
2021/09/01 09:25:11;;;;;;;18.73;14.50;;;18.50;99.90;;;;;;5008192;28;20444;-65
2021/09/01 09:27:46;;;;;;;16.50;14.80;;;18.90;99.90;;;;;;5007883;28;20860;-65
2021/09/01 09:30:37;;;;;;;17.20;15.40;;;19.60;99.90;;;;;;5008224;28;20468;-65
2021/09/01 09:33:07;;;;;;;16.00;14.30;;;20.10;99.90;;;;;;5007695;28;20476;-64
2021/09/01 09:35:50;;;;;;;16.20;14.70;;;20.30;99.90;;;;;;5008052;28;20442;-64
2021/09/01 09:38:26;;;;;;;16.43;14.70;;;20.70;99.90;;;;;;5008044;28;20530;-64
2021/09/01 09:40:53;;;;;;;18.13;16.20;;;21.20;99.90;;;;;;5007988;28;20485;-65
2021/09/01 09:43:22;;;;;;;14.40;13.00;;;20.90;99.90;;;;;;5007455;28;20565;-64
2021/09/01 09:45:58;;;;;;;15.70;14.27;;;21.20;99.90;;;;;;5008262;28;20822;-65
2021/09/01 09:48:28;;;;;;;15.27;13.87;;;21.00;99.90;;;;;;5008233;28;20449;-64
2021/09/01 09:50:55;;;;;;;14.83;13.40;;;21.10;99.90;;;;;;5008066;28;20452;-64
2021/09/01 09:53:40;;;;;;;14.73;13.43;;;21.00;99.90;;;;;;5007798;28;20476;-64
2021/09/01 09:56:10;;;;;;;13.20;11.90;;;21.10;99.90;;;;;;5007858;28;20452;-64
2021/09/01 09:58:40;;;;;;;15.27;13.77;;;21.70;99.90;;;;;;5008088;28;20444;-64
2021/09/01 10:01:09;;;;;;;13.83;12.40;;;21.70;99.90;;;;;;5009281;28;20562;-64
2021/09/01 10:03:37;;;;;;;14.43;12.97;;;22.10;99.90;;;;;;5010937;28;20465;-64
2021/09/01 10:06:06;;;;;;;11.67;10.57;;;21.80;99.90;;;;;;5011327;28;20445;-64
2021/09/01 10:08:34;;;;;;;12.13;11.03;;;22.00;99.90;;;;;;5011087;28;20450;-65
2021/09/01 10:11:07;;;;;;;15.37;13.77;;;22.30;99.90;;;;;;5006004;28;20444;-64
2021/09/01 10:13:34;;;;;;;13.40;11.07;;;22.10;99.90;;;;;;5012890;28;20981;-65
2021/09/01 10:16:13;;;;;;;12.40;11.20;;;22.10;99.90;;;;;;5019593;28;20532;-64
2021/09/01 10:18:41;;;;;;;13.63;12.33;;;22.50;99.90;;;;;;5013599;28;20600;-65
2021/09/01 10:21:09;;;;;;;11.23;10.13;;;22.30;99.90;;;;;;5009383;28;20481;-64
2021/09/01 10:23:38;;;;;;;12.60;11.30;;;22.10;99.90;;;;;;5012061;28;20478;-64
2021/09/01 10:26:27;;;;;;;10.73;9.63;;;21.90;99.90;;;;;;5011472;28;20504;-64
2021/09/01 10:28:55;;;;;;;9.63;8.70;;;22.00;99.90;;;;;;5019836;28;20460;-64
2021/09/01 10:31:25;;;;;;;9.60;8.70;;;22.70;99.90;;;;;;5010831;28;20452;-64
2021/09/01 10:33:54;;;;;;;9.37;7.43;;;22.80;99.90;;;;;;5002342;28;20457;-64
2021/09/01 10:36:57;;;;;;;9.73;7.87;;;22.70;99.90;;;;;;5004850;28;20525;-64
2021/09/01 10:39:38;;;;;;;11.20;7.80;;;22.30;99.90;;;;;;4991892;28;20692;-64
2021/09/01 10:42:37;;;;;;;7.50;6.70;;;22.40;99.90;;;;;;4996985;28;20442;-65
2021/09/01 10:45:07;;;;;;;7.20;6.50;;;23.00;99.90;;;;;;4958639;28;20508;-64
2021/09/01 10:48:11;;;;;;;6.87;5.63;;;23.70;99.90;;;;;;4992109;28;20457;-64
2021/09/01 10:50:40;;;;;;;5.43;4.83;;;24.20;99.90;;;;;;4997623;28;20857;-65
2021/09/01 10:53:17;;;;;;;6.57;5.27;;;24.90;99.90;;;;;;5001586;28;21178;-64
2021/09/01 10:55:50;;;;;;;6.07;5.47;;;24.60;99.90;;;;;;4996015;28;20478;-65
2021/09/01 10:58:19;;;;;;;6.50;5.13;;;24.90;99.90;;;;;;5001214;28;20442;-64
2021/09/01 11:00:53;;;;;;;6.90;5.90;;;25.00;99.90;;;;;;4998657;28;20481;-65
2021/09/01 11:03:29;;;;;;;7.10;6.40;;;24.20;99.90;;;;;;5003067;28;20469;-64
2021/09/01 11:06:14;;;;;;;8.37;7.40;;;23.40;99.90;;;;;;5002257;28;20478;-64
2021/09/01 11:08:55;;;;;;;6.13;5.53;;;22.90;99.90;;;;;;5002673;28;20477;-65
2021/09/01 11:11:22;;;;;;;6.43;5.63;;;22.90;99.90;;;;;;4998166;28;20439;-64
2021/09/01 11:13:49;;;;;;;7.70;6.27;;;23.50;99.90;;;;;;4991753;28;20474;-65
2021/09/01 11:16:20;;;;;;;7.23;6.20;;;23.90;99.90;;;;;;5011859;28;20834;-65
2021/09/01 11:19:03;;;;;;;7.40;5.87;;;23.70;99.90;;;;;;4992300;28;20861;-65
2021/09/01 11:21:31;;;;;;;8.27;7.20;;;23.50;99.90;;;;;;5000175;28;20520;-64
2021/09/01 11:23:59;;;;;;;8.00;7.20;;;22.90;99.90;;;;;;5008559;28;20465;-64
2021/09/01 11:26:31;;;;;;;8.90;7.50;;;22.30;99.90;;;;;;5011425;28;20529;-64
2021/09/01 11:28:59;;;;;;;9.43;7.87;;;22.00;99.90;;;;;;5011566;28;20441;-65
2021/09/01 11:31:26;;;;;;;7.20;5.70;;;21.70;99.90;;;;;;5011103;28;20569;-64
2021/09/01 11:33:54;;;;;;;10.03;6.63;;;21.40;99.90;;;;;;5011190;28;20466;-65
2021/09/01 11:36:24;;;;;;;9.57;6.67;;;21.40;99.90;;;;;;5011401;28;20565;-65
2021/09/01 11:38:52;;;;;;;7.90;6.67;;;21.20;99.90;;;;;;5011494;28;20456;-65
2021/09/01 11:41:23;;;;;;;7.47;6.47;;;21.10;99.90;;;;;;5010902;28;20573;-65
2021/09/01 11:43:56;;;;;;;8.10;6.50;;;20.90;99.90;;;;;;5011087;28;20481;-64
2021/09/01 11:46:23;;;;;;;7.93;6.97;;;21.00;99.90;;;;;;5009122;28;20552;-65
2021/09/01 11:48:50;;;;;;;7.57;6.33;;;21.60;99.90;;;;;;5022554;28;20940;-65
2021/09/01 11:51:21;;;;;;;6.37;5.50;;;22.40;99.90;;;;;;5021455;28;20524;-64
2021/09/01 11:53:48;;;;;;;8.40;5.90;;;22.90;99.90;;;;;;5029686;28;20485;-64
2021/09/01 11:56:17;;;;;;;6.83;6.13;;;24.10;99.90;;;;;;5029962;28;20597;-64
2021/09/01 11:58:56;;;;;;;6.93;6.23;;;25.10;99.90;;;;;;5029580;28;20508;-65
2021/09/01 12:01:23;;;;;;;8.47;6.03;;;25.80;99.90;;;;;;5029625;28;21018;-65
2021/09/01 12:03:51;;;;;;;5.50;4.73;;;26.50;99.70;;;;;;5029685;28;20461;-65
2021/09/01 12:06:18;;;;;;;7.17;5.40;;;26.80;97.30;;;;;;5029607;28;20441;-65
2021/09/01 12:08:46;;;;;;;7.00;5.43;;;27.80;98.30;;;;;;5029718;28;20455;-65
2021/09/01 12:11:14;;;;;;;5.33;4.83;;;28.60;96.80;;;;;;5029448;28;20452;-65
2021/09/01 12:13:44;;;;;;;6.17;5.13;;;29.30;93.50;;;;;;5029218;28;20464;-64
2021/09/01 12:16:12;;;;;;;5.67;5.10;;;29.70;92.30;;;;;;5029596;28;20926;-64
2021/09/01 12:18:50;;;;;;;7.10;5.03;;;28.40;91.20;;;;;;5030415;28;20532;-65
2021/09/01 12:21:17;;;;;;;7.43;5.50;;;26.70;90.80;;;;;;5029718;28;20492;-65
2021/09/01 12:23:44;;;;;;;6.10;4.63;;;25.10;94.40;;;;;;5028526;28;20464;-65
2021/09/01 12:26:13;;;;;;;6.70;4.83;;;25.10;95.10;;;;;;5030069;28;20540;-65
2021/09/01 12:28:46;;;;;;;6.53;4.77;;;26.20;97.90;;;;;;5030399;28;20460;-65
2021/09/01 12:31:23;;;;;;;5.00;4.50;;;27.90;95.30;;;;;;5029973;28;20532;-64
2021/09/01 12:33:50;;;;;;;5.20;3.83;;;29.20;86.80;;;;;;5030054;28;20513;-66
2021/09/01 12:36:27;;;;;;;4.83;4.27;;;29.70;90.40;;;;;;5029899;28;20475;-66
2021/09/01 12:38:55;;;;;;;5.43;4.90;;;30.40;90.20;;;;;;5030204;28;20455;-66